createdAt,value
2023-02-17T00:00:12.810Z,49.46
2023-02-17T00:03:21.084Z,48.91
2023-02-17T00:06:32.130Z,49.50
2023-02-17T00:09:40.510Z,48.63
2023-02-17T00:12:48.657Z,48.52
2023-02-17T00:15:58.322Z,48.30
2023-02-17T00:19:24.878Z,48.49
2023-02-17T00:22:33.378Z,47.97
2023-02-17T00:25:41.842Z,48.82
2023-02-17T00:28:50.376Z,48.47
2023-02-17T00:32:00.357Z,47.41
2023-02-17T00:35:09.059Z,47.63
2023-02-17T00:38:17.254Z,47.37
2023-02-17T00:41:27.537Z,47.38
2023-02-17T00:44:38.603Z,46.50
2023-02-17T00:47:48.121Z,47.43
2023-02-17T00:50:58.741Z,47.39
2023-02-17T00:54:08.046Z,47.38
2023-02-17T00:57:16.286Z,47.03
2023-02-17T01:00:24.723Z,46.46
2023-02-17T01:03:36.006Z,47.01
2023-02-17T01:06:44.286Z,46.63
2023-02-17T01:09:52.450Z,46.71
2023-02-17T01:13:00.650Z,46.55
2023-02-17T01:16:18.560Z,46.49
2023-02-17T01:19:28.190Z,46.93
2023-02-17T01:22:36.408Z,47.23
2023-02-17T01:25:47.970Z,47.04
2023-02-17T01:28:57.431Z,46.82
2023-02-17T01:32:06.151Z,47.81
2023-02-17T01:35:15.863Z,47.50
2023-02-17T01:38:23.958Z,48.18
2023-02-17T01:41:32.078Z,47.72
2023-02-17T01:45:42.580Z,48.36
2023-02-17T01:48:52.536Z,48.28
2023-02-17T01:52:11.029Z,49.13
2023-02-17T01:55:22.891Z,48.62
2023-02-17T01:58:33.717Z,48.29
2023-02-17T02:01:41.927Z,48.64
2023-02-17T02:04:54.228Z,49.21
2023-02-17T02:08:04.107Z,48.82
2023-02-17T02:16:13.042Z,48.13
2023-02-17T02:20:04.136Z,48.33
2023-02-17T02:23:54.241Z,47.47
2023-02-17T02:27:43.652Z,47.94
2023-02-17T02:31:28.992Z,47.88
2023-02-17T02:34:48.106Z,47.61
2023-02-17T02:38:07.445Z,47.63
2023-02-17T02:41:23.434Z,47.72
2023-02-17T02:44:32.336Z,47.65
2023-02-17T02:47:47.738Z,47.27
2023-02-17T02:51:19.771Z,47.05
2023-02-17T02:54:42.684Z,48.14
2023-02-17T02:58:03.587Z,48.00
2023-02-17T03:01:20.785Z,48.75
2023-02-17T03:04:36.783Z,48.04
2023-02-17T03:07:57.283Z,48.76
2023-02-17T03:11:06.488Z,48.79
2023-02-17T03:14:21.432Z,47.65
2023-02-17T03:17:33.132Z,48.45
2023-02-17T03:20:50.114Z,48.00
2023-02-17T03:23:59.584Z,48.98
2023-02-17T03:27:08.043Z,48.29
2023-02-17T03:30:16.602Z,48.25
2023-02-17T03:33:24.928Z,48.26
2023-02-17T03:36:34.072Z,48.98
2023-02-17T03:39:43.790Z,48.74
2023-02-17T03:42:51.900Z,48.64
2023-02-17T03:46:00.208Z,48.13
2023-02-17T03:49:08.413Z,48.73
2023-02-17T03:52:16.509Z,48.63
2023-02-17T03:55:25.943Z,48.90
2023-02-17T03:58:34.080Z,48.34
2023-02-17T04:01:42.397Z,48.59
2023-02-17T04:04:50.519Z,49.32
2023-02-17T04:07:58.665Z,48.68
2023-02-17T04:11:10.307Z,47.66
2023-02-17T04:14:18.488Z,48.40
2023-02-17T04:17:26.875Z,48.05
2023-02-17T04:20:35.133Z,49.15
2023-02-17T04:23:43.240Z,48.55
2023-02-17T04:26:52.861Z,48.74
2023-02-17T04:30:01.187Z,48.32
2023-02-17T04:33:09.431Z,49.01
2023-02-17T04:36:18.753Z,48.71
2023-02-17T04:39:27.123Z,48.24
2023-02-17T04:42:36.698Z,48.66
2023-02-17T04:45:44.849Z,48.72
2023-02-17T04:48:52.990Z,48.98
2023-02-17T04:52:01.165Z,48.20
2023-02-17T04:55:10.117Z,49.07
2023-02-17T04:58:20.732Z,48.40
2023-02-17T05:01:28.861Z,48.49
2023-02-17T05:04:37.410Z,48.52
2023-02-17T05:07:46.919Z,48.20
2023-02-17T05:10:55.426Z,47.86
2023-02-17T05:14:04.918Z,48.89
2023-02-17T05:17:13.133Z,49.38
2023-02-17T05:20:21.495Z,48.20
2023-02-17T05:23:29.857Z,48.09
2023-02-17T05:26:39.075Z,47.52
2023-02-17T05:29:48.637Z,47.31
2023-02-17T05:32:57.199Z,47.99
2023-02-17T05:36:11.659Z,47.09
2023-02-17T05:39:19.892Z,47.74
2023-02-17T05:42:28.912Z,47.55
2023-02-17T05:45:38.618Z,46.13
2023-02-17T05:48:48.532Z,46.44
2023-02-17T05:51:56.712Z,45.73
2023-02-17T05:55:05.548Z,45.42
2023-02-17T05:58:13.666Z,45.67
2023-02-17T06:01:23.182Z,45.28
2023-02-17T06:04:31.351Z,45.49
2023-02-17T06:07:39.914Z,45.65
2023-02-17T06:10:48.013Z,46.18
2023-02-17T06:13:56.126Z,45.93
2023-02-17T06:17:05.596Z,46.31
2023-02-17T06:20:14.509Z,46.48
2023-02-17T06:23:22.676Z,46.13
2023-02-17T06:26:31.041Z,46.40
2023-02-17T06:29:39.168Z,46.06
2023-02-17T06:32:48.943Z,46.22
2023-02-17T06:35:57.114Z,45.51
2023-02-17T06:39:05.370Z,45.40
2023-02-17T06:42:13.644Z,47.47
2023-02-17T06:45:21.943Z,48.33
2023-02-17T06:48:33.096Z,48.96
2023-02-17T06:51:41.961Z,49.01
2023-02-17T06:54:50.042Z,48.14
2023-02-17T06:57:58.324Z,48.88
2023-02-17T07:01:08.822Z,48.10
2023-02-17T07:04:18.864Z,49.04
2023-02-17T07:07:26.996Z,48.75
2023-02-17T07:10:35.664Z,48.17
2023-02-17T07:13:45.019Z,48.42
2023-02-17T07:16:53.559Z,48.84
2023-02-17T07:20:03.382Z,47.93
2023-02-17T07:23:11.572Z,48.72
2023-02-17T07:26:19.819Z,48.71
2023-02-17T07:29:28.400Z,47.97
2023-02-17T07:32:36.531Z,47.96
2023-02-17T07:35:46.049Z,48.06
2023-02-17T07:38:54.473Z,47.18
2023-02-17T07:42:05.099Z,46.39
2023-02-17T07:45:14.635Z,46.67
2023-02-17T07:48:22.769Z,46.63
2023-02-17T07:51:32.208Z,45.96
2023-02-17T07:54:40.286Z,46.05
2023-02-17T07:57:48.444Z,45.54
2023-02-17T08:00:56.774Z,46.82
2023-02-17T08:04:05.617Z,46.19
2023-02-17T08:07:16.344Z,46.51
2023-02-17T08:10:42.001Z,47.24
2023-02-17T08:13:50.121Z,47.87
2023-02-17T08:16:58.825Z,47.89
2023-02-17T08:20:09.476Z,47.84
2023-02-17T08:23:20.953Z,47.93
2023-02-17T08:26:29.410Z,48.84
2023-02-17T08:29:37.738Z,52.21
2023-02-17T08:32:47.620Z,54.60
2023-02-17T08:35:55.824Z,52.84
2023-02-17T08:39:07.325Z,50.52
2023-02-17T08:42:15.529Z,50.95
2023-02-17T08:45:23.985Z,49.90
2023-02-17T08:48:32.269Z,48.79
2023-02-17T08:51:40.957Z,49.55
2023-02-17T08:54:52.696Z,48.27
2023-02-17T08:58:00.971Z,48.30
2023-02-17T09:01:09.415Z,47.88
2023-02-17T09:04:18.368Z,48.88
2023-02-17T09:07:26.791Z,48.23
2023-02-17T09:10:37.082Z,49.66
2023-02-17T09:13:46.213Z,49.63
2023-02-17T09:16:56.540Z,49.70
2023-02-17T09:20:16.226Z,49.12
2023-02-17T09:23:31.242Z,50.98
2023-02-17T09:26:41.033Z,51.48
2023-02-17T09:29:49.569Z,51.38
2023-02-17T09:32:58.365Z,51.19
2023-02-17T09:36:09.147Z,51.77
2023-02-17T09:39:17.651Z,55.17
2023-02-17T09:42:29.654Z,54.45
2023-02-17T09:45:38.044Z,55.31
2023-02-17T09:48:50.611Z,54.84
2023-02-17T09:52:07.348Z,53.76
2023-02-17T09:55:24.818Z,54.71
2023-02-17T09:58:40.081Z,54.25
2023-02-17T10:01:51.706Z,52.56
2023-02-17T10:05:06.710Z,52.33
2023-02-17T10:08:23.058Z,53.63
2023-02-17T10:11:35.982Z,53.26
2023-02-17T10:14:53.295Z,52.18
2023-02-17T10:18:12.632Z,53.69
2023-02-17T10:21:28.685Z,52.44
2023-02-17T10:24:36.984Z,52.22
2023-02-17T10:27:55.241Z,51.24
2023-02-17T10:31:12.793Z,50.75
2023-02-17T10:34:36.486Z,48.55
2023-02-17T10:37:57.236Z,48.91
2023-02-17T10:41:12.437Z,48.58
2023-02-17T10:44:25.845Z,49.02
2023-02-17T10:47:40.085Z,50.09
2023-02-17T10:50:49.941Z,50.92
2023-02-17T10:54:04.870Z,49.30
2023-02-17T10:57:18.243Z,49.53
2023-02-17T11:00:27.102Z,48.23
2023-02-17T11:03:38.353Z,47.78
2023-02-17T11:06:51.512Z,47.56
2023-02-17T11:10:03.844Z,47.96
2023-02-17T11:13:35.068Z,47.86
2023-02-17T11:16:47.314Z,46.49
2023-02-17T11:20:03.971Z,47.21
2023-02-17T11:23:25.332Z,47.18
2023-02-17T11:26:37.865Z,48.12
2023-02-17T11:29:46.142Z,47.38
2023-02-17T11:32:55.456Z,47.55
2023-02-17T11:36:10.591Z,48.27
2023-02-17T11:39:22.243Z,48.49
2023-02-17T11:42:34.186Z,48.66
2023-02-17T11:45:55.153Z,48.35
2023-02-17T11:50:09.594Z,48.20
2023-02-17T11:53:38.603Z,48.83
2023-02-17T11:57:01.308Z,47.94
2023-02-17T12:00:19.362Z,47.96
2023-02-17T12:03:55.430Z,48.17
2023-02-17T12:07:37.468Z,48.75
2023-02-17T12:11:09.169Z,48.82
2023-02-17T12:14:51.212Z,48.68
2023-02-17T12:18:15.134Z,49.38
2023-02-17T12:21:44.854Z,48.78
2023-02-17T12:25:19.797Z,49.01
2023-02-17T12:29:01.881Z,49.03
2023-02-17T12:32:35.791Z,49.49
2023-02-17T12:35:52.769Z,48.36
2023-02-17T12:39:12.913Z,48.69
2023-02-17T12:42:27.896Z,48.67
2023-02-17T12:45:44.310Z,47.09
2023-02-17T12:48:59.229Z,48.78
2023-02-17T12:52:17.872Z,49.29
2023-02-17T12:55:35.600Z,49.23
2023-02-17T12:58:44.434Z,48.71
2023-02-17T13:02:01.692Z,49.22
2023-02-17T13:05:24.253Z,50.65
2023-02-17T13:08:44.717Z,51.61
2023-02-17T13:11:53.038Z,51.66
2023-02-17T13:15:05.344Z,51.07
2023-02-17T13:18:30.481Z,50.87
2023-02-17T13:21:49.297Z,50.64
2023-02-17T13:24:57.648Z,51.08
2023-02-17T13:28:37.282Z,51.41
2023-02-17T13:31:53.699Z,51.90
2023-02-17T13:35:08.513Z,52.47
2023-02-17T13:38:35.176Z,52.16
2023-02-17T13:41:51.671Z,52.06
2023-02-17T13:45:24.754Z,51.92
2023-02-17T13:48:46.895Z,53.02
2023-02-17T13:52:26.015Z,52.92
2023-02-17T13:55:34.205Z,53.07
2023-02-17T13:58:43.354Z,53.59
2023-02-17T14:01:54.650Z,53.48
2023-02-17T14:05:19.454Z,53.12
2023-02-17T14:08:38.231Z,53.21
2023-02-17T14:11:46.592Z,52.90
2023-02-17T14:14:54.882Z,52.82
2023-02-17T14:18:14.840Z,52.94
2023-02-17T14:21:27.560Z,53.39
2023-02-17T14:24:39.821Z,53.88
2023-02-17T14:27:51.205Z,54.20
2023-02-17T14:31:11.186Z,56.19
2023-02-17T14:34:29.355Z,56.11
2023-02-17T14:37:37.511Z,57.09
2023-02-17T14:40:46.991Z,56.19
2023-02-17T14:43:55.309Z,56.34
2023-02-17T14:47:06.205Z,55.64
2023-02-17T14:50:17.330Z,55.04
2023-02-17T14:53:29.886Z,54.69
2023-02-17T14:56:47.536Z,54.64
2023-02-17T14:59:57.699Z,55.51
2023-02-17T15:03:06.037Z,54.50
2023-02-17T15:06:17.641Z,54.18
2023-02-17T15:09:31.606Z,54.71
2023-02-17T15:12:41.110Z,54.77
2023-02-17T15:15:50.163Z,55.62
2023-02-17T15:18:59.304Z,54.88
2023-02-17T15:22:08.418Z,55.05
2023-02-17T15:25:22.153Z,56.06
2023-02-17T15:28:31.691Z,55.82
2023-02-17T15:31:45.840Z,55.63
2023-02-17T15:34:54.865Z,56.13
2023-02-17T15:38:03.250Z,56.47
2023-02-17T15:41:33.709Z,55.63
2023-02-17T15:45:01.231Z,57.09
2023-02-17T15:48:25.331Z,56.40
2023-02-17T15:51:47.547Z,57.86
2023-02-17T15:55:06.181Z,59.63
2023-02-17T15:58:24.624Z,58.95
2023-02-17T16:01:40.132Z,59.64
2023-02-17T16:04:49.068Z,58.38
2023-02-17T16:08:02.911Z,58.51
2023-02-17T16:11:13.957Z,58.66
2023-02-17T16:14:27.410Z,58.60
2023-02-17T16:17:37.322Z,58.80
2023-02-17T16:20:45.838Z,58.56
2023-02-17T16:23:59.012Z,59.59
2023-02-17T16:27:09.678Z,59.08
2023-02-17T16:30:22.238Z,59.18
2023-02-17T16:33:31.772Z,60.08
2023-02-17T16:36:41.056Z,59.87
2023-02-17T16:39:49.582Z,60.62
2023-02-17T16:42:58.286Z,61.15
2023-02-17T16:46:07.898Z,61.75
2023-02-17T16:49:26.013Z,61.82
2023-02-17T16:52:40.331Z,62.83
2023-02-17T16:55:48.870Z,62.32
2023-02-17T16:59:10.082Z,62.88
2023-02-17T17:02:26.059Z,63.22
2023-02-17T17:05:51.582Z,63.80
2023-02-17T17:09:01.195Z,63.69
2023-02-17T17:12:12.396Z,63.98
2023-02-17T17:15:25.771Z,64.35
2023-02-17T17:18:40.097Z,63.86
2023-02-17T17:21:53.363Z,64.36
2023-02-17T17:25:15.001Z,64.70
2023-02-17T17:28:24.363Z,64.78
2023-02-17T17:31:37.166Z,64.47
2023-02-17T17:34:56.856Z,64.98
2023-02-17T17:38:17.961Z,65.06
2023-02-17T17:41:40.982Z,65.12
2023-02-17T17:46:05.234Z,65.37
2023-02-17T17:49:18.130Z,65.00
2023-02-17T17:52:27.932Z,65.55
2023-02-17T17:55:38.157Z,65.60
2023-02-17T17:58:47.006Z,65.69
2023-02-17T18:01:55.329Z,65.22
2023-02-17T18:05:03.809Z,65.17
2023-02-17T18:08:22.952Z,65.82
2023-02-17T18:11:49.291Z,64.94
2023-02-17T18:15:11.093Z,65.04
2023-02-17T18:18:28.767Z,65.09
2023-02-17T18:21:51.066Z,65.30
2023-02-17T18:25:03.562Z,65.57
2023-02-17T18:28:49.596Z,64.75
2023-02-17T18:32:13.303Z,65.05
2023-02-17T18:35:27.545Z,65.68
2023-02-17T18:38:42.826Z,65.72
2023-02-17T18:42:07.254Z,64.88
2023-02-17T18:45:48.837Z,65.68
2023-02-17T18:49:31.949Z,65.07
2023-02-17T18:52:50.962Z,64.65
2023-02-17T18:56:00.033Z,65.70
2023-02-17T18:59:30.073Z,64.11
2023-02-17T19:03:17.881Z,65.04
2023-02-17T19:06:47.219Z,64.85
2023-02-17T19:10:01.139Z,65.65
2023-02-17T19:13:14.001Z,64.78
2023-02-17T19:16:28.402Z,65.64
2023-02-17T19:19:56.698Z,64.76
2023-02-17T19:23:06.964Z,65.14
2023-02-17T19:26:21.908Z,64.69
2023-02-17T19:29:30.638Z,64.44
2023-02-17T19:32:39.431Z,64.96
2023-02-17T19:35:50.261Z,65.23
2023-02-17T19:38:59.432Z,64.16
2023-02-17T19:42:08.264Z,64.54
2023-02-17T19:45:17.169Z,64.35
2023-02-17T19:48:25.805Z,64.41
2023-02-17T19:51:36.360Z,63.77
2023-02-17T19:54:45.107Z,64.05
2023-02-17T19:57:54.538Z,63.64
2023-02-17T20:01:07.278Z,63.82
2023-02-17T20:04:15.505Z,63.48
2023-02-17T20:07:25.360Z,63.63
2023-02-17T20:10:34.261Z,63.19
2023-02-17T20:13:46.562Z,64.17
2023-02-17T20:16:56.386Z,64.74
2023-02-17T20:20:05.272Z,63.71
2023-02-17T20:23:14.837Z,63.82
2023-02-17T20:26:31.301Z,63.97
2023-02-17T20:29:39.757Z,64.12
2023-02-17T20:32:48.094Z,63.33
2023-02-17T20:35:56.448Z,63.45
2023-02-17T20:39:06.090Z,63.81
2023-02-17T20:42:14.323Z,63.98
2023-02-17T20:45:22.599Z,64.07
2023-02-17T20:48:30.759Z,64.00
2023-02-17T20:51:39.550Z,63.27
2023-02-17T20:54:49.121Z,63.67
2023-02-17T20:57:57.692Z,62.63
2023-02-17T21:01:06.351Z,63.24
2023-02-17T21:04:15.242Z,62.68
2023-02-17T21:07:23.544Z,61.84
2023-02-17T21:10:34.574Z,62.09
2023-02-17T21:13:42.746Z,61.71
2023-02-17T21:16:50.940Z,61.58
2023-02-17T21:19:59.198Z,61.98
2023-02-17T21:23:08.109Z,61.44
2023-02-17T21:26:18.379Z,62.07
2023-02-17T21:29:26.977Z,61.60
2023-02-17T21:32:35.173Z,61.33
2023-02-17T21:35:43.383Z,61.76
2023-02-17T21:38:51.678Z,61.40
2023-02-17T21:42:01.282Z,62.13
2023-02-17T21:45:09.726Z,62.13
2023-02-17T21:48:17.963Z,62.30
2023-02-17T21:51:26.573Z,62.41
2023-02-17T21:54:34.826Z,61.98
2023-02-17T21:57:44.343Z,62.42
2023-02-17T22:00:52.630Z,62.73
2023-02-17T22:04:02.499Z,62.59
2023-02-17T22:07:12.056Z,62.70
2023-02-17T22:10:20.333Z,62.76
2023-02-17T22:13:29.921Z,63.12
2023-02-17T22:16:38.772Z,62.13
2023-02-17T22:19:47.037Z,63.04
2023-02-17T22:22:55.800Z,62.85
2023-02-17T22:26:08.738Z,62.67
2023-02-17T22:29:18.404Z,62.39
2023-02-17T22:32:26.626Z,62.64
2023-02-17T22:35:34.869Z,63.37
2023-02-17T22:38:43.316Z,63.16
2023-02-17T22:41:51.497Z,63.57
2023-02-17T22:45:00.989Z,64.68
2023-02-17T22:48:09.288Z,64.70
2023-02-17T22:51:20.263Z,64.62
2023-02-17T22:54:28.351Z,64.72
2023-02-17T22:57:36.573Z,64.58
2023-02-17T23:00:46.055Z,64.13
2023-02-17T23:03:55.221Z,64.59
2023-02-17T23:07:03.367Z,65.36
2023-02-17T23:10:12.066Z,65.33
2023-02-17T23:13:20.222Z,65.57
2023-02-17T23:16:29.908Z,65.83
2023-02-17T23:19:40.981Z,66.33
2023-02-17T23:22:49.311Z,66.17
2023-02-17T23:25:57.850Z,66.59
2023-02-17T23:29:06.888Z,66.36
2023-02-17T23:32:16.802Z,66.69
2023-02-17T23:35:25.359Z,66.95
2023-02-17T23:38:34.372Z,67.68
2023-02-17T23:41:43.149Z,67.88
2023-02-17T23:44:51.547Z,67.86
2023-02-17T23:48:01.407Z,68.03
2023-02-17T23:51:09.675Z,68.43
2023-02-17T23:54:17.761Z,68.38
2023-02-17T23:57:29.661Z,68.75
